createdAt,value
2022-11-07T00:00:10.964Z,7.70
2022-11-07T00:04:29.479Z,7.95
2022-11-07T00:08:46.652Z,7.22
2022-11-07T00:13:03.915Z,7.15
2022-11-07T00:17:21.083Z,7.68
2022-11-07T00:21:39.598Z,7.57
2022-11-07T00:26:04.113Z,6.85
2022-11-07T00:30:21.330Z,6.90
2022-11-07T00:34:38.510Z,7.15
2022-11-07T00:38:55.931Z,7.35
2022-11-07T00:43:13.328Z,7.15
2022-11-07T00:47:30.722Z,6.78
2022-11-07T00:51:47.996Z,7.28
2022-11-07T00:56:07.981Z,6.63
2022-11-07T01:00:25.548Z,6.53
2022-11-07T01:05:01.622Z,6.47
2022-11-07T01:09:21.050Z,6.57
2022-11-07T01:13:38.273Z,6.65
2022-11-07T01:17:55.460Z,6.70
2022-11-07T01:22:12.738Z,7.00
2022-11-07T01:26:30.024Z,6.70
2022-11-07T01:30:47.206Z,6.70
2022-11-07T01:35:04.774Z,6.00
2022-11-07T01:39:21.987Z,5.78
2022-11-07T01:43:47.030Z,6.65
2022-11-07T01:48:04.375Z,5.97
2022-11-07T01:52:31.955Z,5.75
2022-11-07T01:56:51.289Z,5.80
2022-11-07T02:01:08.698Z,6.03
2022-11-07T02:05:32.751Z,5.78
2022-11-07T02:09:54.288Z,6.00
2022-11-07T02:14:18.717Z,5.75
2022-11-07T02:18:37.601Z,4.93
2022-11-07T02:23:19.521Z,5.47
2022-11-07T02:27:37.465Z,4.78
2022-11-07T02:32:21.248Z,4.97
2022-11-07T02:36:38.538Z,5.00
2022-11-07T02:41:20.152Z,4.50
2022-11-07T02:45:41.897Z,5.05
2022-11-07T02:49:59.065Z,4.43
2022-11-07T02:54:16.315Z,4.50
2022-11-07T02:58:34.225Z,4.32
2022-11-07T03:02:51.725Z,4.10
2022-11-07T03:07:08.981Z,3.45
2022-11-07T03:11:26.169Z,3.72
2022-11-07T03:15:43.380Z,3.30
2022-11-07T03:20:00.882Z,3.83
2022-11-07T03:24:18.536Z,3.83
2022-11-07T03:28:35.786Z,3.72
2022-11-07T03:32:53.587Z,3.47
2022-11-07T03:37:10.759Z,4.00
2022-11-07T03:41:28.118Z,3.95
2022-11-07T03:45:45.309Z,4.15
2022-11-07T03:50:02.819Z,4.13
2022-11-07T03:54:19.990Z,4.22
2022-11-07T03:58:37.811Z,4.80
2022-11-07T04:02:55.132Z,4.73
2022-11-07T04:07:12.492Z,4.90
2022-11-07T04:11:48.263Z,4.97
2022-11-07T04:16:24.282Z,5.35
2022-11-07T04:20:41.469Z,4.97
2022-11-07T04:24:58.711Z,4.75
2022-11-07T04:29:15.861Z,5.05
2022-11-07T04:33:33.157Z,5.90
2022-11-07T04:37:50.748Z,5.45
2022-11-07T04:42:08.019Z,7.68
2022-11-07T04:46:25.270Z,8.30
2022-11-07T04:50:43.540Z,8.57
2022-11-07T04:55:00.795Z,7.00
2022-11-07T04:59:18.009Z,8.45
2022-11-07T05:03:40.383Z,8.43
2022-11-07T05:07:58.905Z,6.93
2022-11-07T05:12:16.132Z,7.60
2022-11-07T05:16:34.588Z,7.13
2022-11-07T05:20:51.868Z,6.07
2022-11-07T05:25:09.743Z,6.20
2022-11-07T05:29:27.376Z,6.17
2022-11-07T05:33:44.631Z,5.97
2022-11-07T05:38:02.191Z,5.43
2022-11-07T05:42:19.407Z,5.50
2022-11-07T05:46:36.595Z,5.70
2022-11-07T05:50:54.153Z,5.80
2022-11-07T05:55:11.359Z,5.68
2022-11-07T05:59:28.623Z,5.97
2022-11-07T06:03:45.873Z,6.35
2022-11-07T06:08:03.189Z,5.65
2022-11-07T06:12:20.413Z,5.18
2022-11-07T06:16:37.776Z,5.05
2022-11-07T06:20:54.962Z,5.53
2022-11-07T06:25:12.292Z,6.00
2022-11-07T06:29:29.501Z,5.88
2022-11-07T06:33:49.924Z,6.43
2022-11-07T06:38:12.540Z,6.47
2022-11-07T06:42:29.776Z,6.80
2022-11-07T06:46:47.139Z,6.65
2022-11-07T06:51:06.692Z,7.20
2022-11-07T06:55:23.931Z,6.13
2022-11-07T06:59:41.159Z,6.90
2022-11-07T07:03:59.744Z,5.90
2022-11-07T07:08:17.019Z,6.55
2022-11-07T07:12:34.910Z,6.45
2022-11-07T07:16:52.412Z,6.17
2022-11-07T07:21:11.985Z,6.00
2022-11-07T07:25:29.208Z,6.07
2022-11-07T07:29:47.645Z,6.35
2022-11-07T07:34:04.845Z,6.88
2022-11-07T07:38:22.106Z,6.25
2022-11-07T07:42:43.247Z,6.68
2022-11-07T07:47:00.610Z,6.68
2022-11-07T07:51:17.795Z,6.65
2022-11-07T07:55:35.392Z,6.88
2022-11-07T07:59:52.761Z,6.40
2022-11-07T08:04:10.100Z,6.15
2022-11-07T08:08:27.326Z,5.85
2022-11-07T08:12:46.374Z,5.90
2022-11-07T08:17:04.201Z,5.82
2022-11-07T08:21:22.345Z,4.60
2022-11-07T08:25:39.551Z,4.40
2022-11-07T08:29:57.549Z,4.20
2022-11-07T08:34:15.393Z,3.97
2022-11-07T08:38:34.697Z,3.90
2022-11-07T08:42:52.385Z,3.95
2022-11-07T08:47:09.614Z,3.85
2022-11-07T08:51:26.797Z,4.00
2022-11-07T08:55:43.971Z,3.47
2022-11-07T09:00:01.258Z,3.15
2022-11-07T09:04:18.620Z,3.10
2022-11-07T09:08:35.867Z,2.53
2022-11-07T09:12:53.219Z,2.58
2022-11-07T09:17:10.392Z,2.65
2022-11-07T09:21:27.567Z,2.45
2022-11-07T09:25:45.143Z,2.90
2022-11-07T09:30:05.886Z,2.50
2022-11-07T09:34:23.161Z,2.88
2022-11-07T09:38:40.464Z,2.15
2022-11-07T09:43:13.219Z,2.38
2022-11-07T09:47:37.966Z,2.00
2022-11-07T09:52:38.779Z,2.30
2022-11-07T09:56:59.456Z,2.30
2022-11-07T10:01:20.331Z,2.25
2022-11-07T10:05:51.554Z,2.10
2022-11-07T10:10:31.538Z,1.80
2022-11-07T10:15:24.972Z,3.00
2022-11-07T10:19:49.231Z,1.98
2022-11-07T10:24:25.353Z,2.10
2022-11-07T10:28:53.327Z,1.80
2022-11-07T10:33:39.855Z,2.05
2022-11-07T10:38:00.327Z,2.00
2022-11-07T10:42:24.338Z,1.85
2022-11-07T10:46:45.119Z,1.40
2022-11-07T10:51:04.069Z,2.25
2022-11-07T10:55:22.423Z,1.58
2022-11-07T10:59:44.833Z,1.60
2022-11-07T11:04:03.670Z,1.50
2022-11-07T11:08:23.772Z,1.67
2022-11-07T11:12:46.445Z,1.58
2022-11-07T11:17:04.294Z,1.60
2022-11-07T11:21:22.111Z,1.60
2022-11-07T11:25:47.630Z,1.30
2022-11-07T11:30:07.889Z,1.40
2022-11-07T11:34:55.532Z,2.15
2022-11-07T11:39:26.230Z,1.50
2022-11-07T11:43:49.105Z,7.18
2022-11-07T11:48:27.870Z,1.48
2022-11-07T11:52:46.226Z,1.23
2022-11-07T11:57:47.920Z,1.77
2022-11-07T12:02:42.221Z,1.88
2022-11-07T12:07:30.024Z,1.83
2022-11-07T12:12:15.171Z,1.80
2022-11-07T12:16:51.342Z,1.60
2022-11-07T12:21:17.242Z,1.30
2022-11-07T12:25:43.756Z,1.52
2022-11-07T12:30:31.078Z,2.58
2022-11-07T12:35:25.838Z,1.80
2022-11-07T12:40:10.463Z,1.92
2022-11-07T12:44:36.527Z,1.90
2022-11-07T12:48:53.665Z,1.67
2022-11-07T12:53:22.820Z,1.48
2022-11-07T12:57:41.371Z,1.35
2022-11-07T13:02:09.018Z,1.80
2022-11-07T13:06:35.382Z,1.20
2022-11-07T13:11:31.202Z,1.20
2022-11-07T13:16:13.995Z,1.60
2022-11-07T13:20:28.860Z,1.42
2022-11-07T13:25:08.362Z,1.42
2022-11-07T13:29:39.309Z,1.23
2022-11-07T13:34:24.087Z,1.20
2022-11-07T13:38:49.024Z,1.20
2022-11-07T13:43:26.363Z,0.95
2022-11-07T13:47:44.954Z,1.48
2022-11-07T13:52:08.940Z,1.10
2022-11-07T13:56:53.665Z,1.50
2022-11-07T14:01:12.977Z,1.38
2022-11-07T14:05:36.379Z,1.20
2022-11-07T14:09:59.319Z,1.48
2022-11-07T14:14:16.711Z,1.40
2022-11-07T14:18:41.231Z,1.45
2022-11-07T14:23:00.733Z,1.65
2022-11-07T14:27:19.111Z,1.70
2022-11-07T14:31:37.849Z,1.58
2022-11-07T14:35:55.046Z,1.88
2022-11-07T14:40:12.690Z,1.40
2022-11-07T14:44:56.246Z,1.67
2022-11-07T14:49:23.888Z,1.67
2022-11-07T14:53:55.431Z,1.90
2022-11-07T14:58:13.397Z,1.45
2022-11-07T15:02:33.088Z,2.10
2022-11-07T15:06:50.628Z,1.92
2022-11-07T15:11:28.556Z,2.40
2022-11-07T15:15:47.365Z,3.28
2022-11-07T15:20:07.142Z,2.47
2022-11-07T15:24:43.342Z,1.95
2022-11-07T15:29:14.594Z,1.98
2022-11-07T15:33:33.036Z,2.42
2022-11-07T15:37:57.984Z,2.63
2022-11-07T15:42:15.418Z,2.25
2022-11-07T15:46:35.772Z,3.00
2022-11-07T15:50:53.044Z,4.35
2022-11-07T15:55:15.088Z,5.15
2022-11-07T15:59:35.190Z,4.68
2022-11-07T16:03:52.448Z,3.92
2022-11-07T16:08:17.755Z,4.93
2022-11-07T16:12:35.172Z,3.63
2022-11-07T16:16:53.021Z,2.72
2022-11-07T16:21:10.285Z,3.33
2022-11-07T16:25:30.316Z,2.50
2022-11-07T16:29:47.919Z,2.50
2022-11-07T16:34:05.500Z,2.22
2022-11-07T16:38:24.563Z,2.55
2022-11-07T16:42:42.167Z,19.67
2022-11-07T16:47:00.335Z,11.05
2022-11-07T16:51:20.340Z,6.10
2022-11-07T16:55:38.048Z,6.13
2022-11-07T16:59:55.242Z,7.43
2022-11-07T17:04:12.412Z,8.48
2022-11-07T17:08:38.981Z,8.45
2022-11-07T17:12:56.160Z,5.93
2022-11-07T17:17:15.133Z,5.57
2022-11-07T17:25:53.661Z,6.22
2022-11-07T17:30:17.935Z,5.68
2022-11-07T17:34:35.119Z,4.60
2022-11-07T17:38:53.772Z,3.80
2022-11-07T17:43:11.142Z,3.83
2022-11-07T17:47:30.531Z,3.90
2022-11-07T17:51:48.176Z,3.42
2022-11-07T17:56:06.988Z,2.90
2022-11-07T18:04:42.288Z,3.33
2022-11-07T18:09:01.028Z,3.50
2022-11-07T18:13:18.457Z,3.60
2022-11-07T18:17:35.674Z,3.00
2022-11-07T18:21:54.136Z,2.95
2022-11-07T18:26:17.302Z,3.20
2022-11-07T18:30:36.313Z,2.92
2022-11-07T18:34:53.522Z,2.60
2022-11-07T18:39:21.833Z,2.38
2022-11-07T18:43:39.917Z,2.77
2022-11-07T18:47:57.104Z,2.73
2022-11-07T18:52:14.349Z,2.53
2022-11-07T18:56:31.743Z,2.45
2022-11-07T19:00:49.099Z,2.47
2022-11-07T19:05:07.330Z,2.63
2022-11-07T19:09:27.359Z,2.88
2022-11-07T19:13:45.720Z,2.38
2022-11-07T19:18:02.960Z,3.28
2022-11-07T19:22:20.222Z,4.85
2022-11-07T19:26:39.476Z,4.47
2022-11-07T19:30:56.749Z,4.22
2022-11-07T19:35:16.388Z,4.13
2022-11-07T19:39:37.587Z,4.90
2022-11-07T19:43:54.922Z,4.93
2022-11-07T19:48:12.264Z,3.60
2022-11-07T19:52:29.744Z,3.40
2022-11-07T19:56:46.964Z,3.13
2022-11-07T20:01:15.990Z,3.17
2022-11-07T20:05:34.370Z,2.92
2022-11-07T20:09:51.663Z,3.22
2022-11-07T20:14:09.196Z,3.20
2022-11-07T20:18:26.525Z,3.13
2022-11-07T20:22:49.768Z,2.78
2022-11-07T20:27:06.968Z,2.83
2022-11-07T20:31:32.895Z,3.22
2022-11-07T20:36:01.646Z,3.05
2022-11-07T20:40:18.824Z,3.17
2022-11-07T20:44:35.987Z,3.47
2022-11-07T20:48:54.095Z,3.90
2022-11-07T20:53:11.444Z,3.20
2022-11-07T20:57:29.699Z,2.97
2022-11-07T21:01:50.744Z,3.05
2022-11-07T21:06:11.408Z,2.70
2022-11-07T21:10:28.750Z,2.70
2022-11-07T21:14:45.913Z,3.13
2022-11-07T21:19:05.282Z,5.43
2022-11-07T21:23:23.323Z,4.85
2022-11-07T21:27:40.547Z,3.20
2022-11-07T21:31:57.781Z,2.90
2022-11-07T21:36:19.010Z,2.72
2022-11-07T21:40:36.710Z,2.90
2022-11-07T21:44:53.924Z,2.97
2022-11-07T21:49:11.524Z,3.05
2022-11-07T21:53:28.744Z,2.60
2022-11-07T21:57:46.195Z,2.78
2022-11-07T22:02:03.575Z,2.50
2022-11-07T22:06:22.151Z,2.67
2022-11-07T22:10:39.392Z,2.60
2022-11-07T22:14:56.603Z,2.17
2022-11-07T22:19:13.893Z,3.15
2022-11-07T22:23:32.639Z,2.78
2022-11-07T22:32:06.934Z,2.78
2022-11-07T22:36:24.667Z,2.25
2022-11-07T22:40:45.685Z,3.05
2022-11-07T22:45:02.960Z,3.05
2022-11-07T22:49:20.227Z,2.58
2022-11-07T22:53:40.654Z,1.98
2022-11-07T22:57:57.832Z,2.70
2022-11-07T23:02:15.214Z,2.63
2022-11-07T23:06:33.467Z,2.35
2022-11-07T23:11:34.937Z,2.85
2022-11-07T23:15:38.658Z,2.78
2022-11-07T23:19:55.854Z,2.47
2022-11-07T23:24:13.705Z,2.22
2022-11-07T23:28:30.937Z,2.15
2022-11-07T23:32:48.227Z,2.78
2022-11-07T23:37:13.859Z,2.50
2022-11-07T23:41:31.125Z,2.88
2022-11-07T23:46:07.095Z,3.00
2022-11-07T23:50:42.954Z,2.67
2022-11-07T23:55:18.800Z,2.97
2022-11-07T23:59:54.839Z,2.97
